createdAt,value
2023-05-19T00:01:45.121Z,9.28
2023-05-19T00:06:51.569Z,9.27
2023-05-19T00:11:53.896Z,9.29
2023-05-19T00:16:57.647Z,9.28
2023-05-19T00:21:59.590Z,9.31
2023-05-19T00:27:01.425Z,9.31
2023-05-19T00:32:03.572Z,9.25
2023-05-19T00:37:05.637Z,9.22
2023-05-19T00:42:07.619Z,9.25
2023-05-19T00:47:09.457Z,9.21
2023-05-19T00:52:11.400Z,9.16
2023-05-19T00:57:14.984Z,9.13
2023-05-19T01:02:17.589Z,9.10
2023-05-19T01:07:20.893Z,9.11
2023-05-19T01:12:23.089Z,9.11
2023-05-19T01:17:49.138Z,9.13
2023-05-19T01:23:17.546Z,9.11
2023-05-19T01:28:44.326Z,9.13
2023-05-19T01:33:47.710Z,9.20
2023-05-19T01:38:57.770Z,9.25
2023-05-19T01:44:00.057Z,9.27
2023-05-19T01:49:02.567Z,9.29
2023-05-19T01:54:04.431Z,9.22
2023-05-19T01:59:28.115Z,9.22
2023-05-19T02:04:55.722Z,9.24
2023-05-19T02:10:23.940Z,9.27
2023-05-19T02:15:33.574Z,9.28
2023-05-19T02:20:35.479Z,9.27
2023-05-19T02:25:37.828Z,9.25
2023-05-19T02:30:39.603Z,9.27
2023-05-19T02:35:41.362Z,9.25
2023-05-19T02:40:43.278Z,9.24
2023-05-19T02:45:45.218Z,9.27
2023-05-19T02:50:47.004Z,9.37
2023-05-19T02:55:48.872Z,9.42
2023-05-19T03:00:51.161Z,9.45
2023-05-19T03:05:53.493Z,9.36
2023-05-19T03:10:55.224Z,9.27
2023-05-19T03:15:58.756Z,9.25
2023-05-19T03:21:00.858Z,9.21
2023-05-19T03:26:02.801Z,9.19
2023-05-19T03:31:04.692Z,9.24
2023-05-19T03:36:07.500Z,9.34
2023-05-19T03:41:09.264Z,9.38
2023-05-19T03:46:13.974Z,9.40
2023-05-19T03:51:16.085Z,9.54
2023-05-19T03:56:17.867Z,9.72
2023-05-19T04:01:19.846Z,9.81
2023-05-19T04:06:21.722Z,9.89
2023-05-19T04:11:23.623Z,9.81
2023-05-19T04:16:25.712Z,9.83
2023-05-19T04:21:27.776Z,9.77
2023-05-19T04:26:30.670Z,9.77
2023-05-19T04:31:33.896Z,9.79
2023-05-19T04:36:37.315Z,9.85
2023-05-19T04:41:40.080Z,9.88
2023-05-19T04:46:42.313Z,9.99
2023-05-19T04:51:45.678Z,10.13
2023-05-19T04:56:47.450Z,10.22
2023-05-19T05:01:49.410Z,10.27
2023-05-19T05:06:51.524Z,10.35
2023-05-19T05:11:54.018Z,10.44
2023-05-19T05:16:56.492Z,10.55
2023-05-19T05:22:00.000Z,10.66
2023-05-19T05:27:01.833Z,10.74
2023-05-19T05:32:04.014Z,10.86
2023-05-19T05:37:06.386Z,10.96
2023-05-19T05:42:12.048Z,11.15
2023-05-19T05:47:15.251Z,11.19
2023-05-19T05:52:20.750Z,11.35
2023-05-19T05:57:23.211Z,11.67
2023-05-19T06:02:25.321Z,11.77
2023-05-19T06:07:27.366Z,11.88
2023-05-19T06:12:29.158Z,12.10
2023-05-19T06:17:31.304Z,12.17
2023-05-19T06:22:33.410Z,12.27
2023-05-19T06:27:35.692Z,12.30
2023-05-19T06:32:37.727Z,12.47
2023-05-19T06:37:39.756Z,12.54
2023-05-19T06:42:41.643Z,12.71
2023-05-19T06:47:44.810Z,13.07
2023-05-19T06:52:46.719Z,13.19
2023-05-19T06:57:48.618Z,13.27
2023-05-19T07:02:50.599Z,13.45
2023-05-19T07:07:52.667Z,13.66
2023-05-19T07:12:54.630Z,13.88
2023-05-19T07:17:58.292Z,14.09
2023-05-19T07:23:02.279Z,14.31
2023-05-19T07:28:04.470Z,14.64
2023-05-19T07:33:06.563Z,14.88
2023-05-19T07:38:08.326Z,15.02
2023-05-19T07:43:11.142Z,15.07
2023-05-19T07:48:13.434Z,15.05
2023-05-19T07:53:15.590Z,15.19
2023-05-19T07:58:17.484Z,15.34
2023-05-19T08:03:20.294Z,15.52
2023-05-19T08:08:22.760Z,15.75
2023-05-19T08:13:24.833Z,15.89
2023-05-19T08:18:26.722Z,16.03
2023-05-19T08:23:28.922Z,16.39
2023-05-19T08:28:31.000Z,16.66
2023-05-19T08:33:32.869Z,16.85
2023-05-19T08:38:34.752Z,17.03
2023-05-19T08:43:37.140Z,17.19
2023-05-19T08:48:43.645Z,17.29
2023-05-19T08:53:53.130Z,17.24
2023-05-19T08:58:59.751Z,17.14
2023-05-19T09:04:03.398Z,17.16
2023-05-19T09:09:05.872Z,17.30
2023-05-19T09:14:07.655Z,17.35
2023-05-19T09:19:16.739Z,17.46
2023-05-19T09:24:18.775Z,17.54
2023-05-19T09:29:20.666Z,17.54
2023-05-19T09:34:24.405Z,17.58
2023-05-19T09:39:28.312Z,17.64
2023-05-19T09:44:30.995Z,17.40
2023-05-19T09:49:32.981Z,16.99
2023-05-19T09:54:35.180Z,17.09
2023-05-19T09:59:38.775Z,17.37
2023-05-19T10:04:42.363Z,17.21
2023-05-19T10:09:45.702Z,17.02
2023-05-19T10:14:49.426Z,16.97
2023-05-19T10:19:54.211Z,17.00
2023-05-19T10:24:56.248Z,17.02
2023-05-19T10:30:05.583Z,16.95
2023-05-19T10:35:25.852Z,17.05
2023-05-19T10:40:34.036Z,16.82
2023-05-19T10:45:48.754Z,16.88
2023-05-19T10:50:56.337Z,16.89
2023-05-19T10:56:04.555Z,16.74
2023-05-19T11:01:09.565Z,16.77
2023-05-19T11:06:30.647Z,16.72
2023-05-19T11:11:48.056Z,16.47
2023-05-19T11:16:53.168Z,16.30
2023-05-19T11:21:57.093Z,16.14
2023-05-19T11:26:58.930Z,15.95
2023-05-19T11:32:01.239Z,15.66
2023-05-19T11:37:04.732Z,15.38
2023-05-19T11:42:15.439Z,15.22
2023-05-19T11:47:17.395Z,15.19
2023-05-19T11:52:22.614Z,15.00
2023-05-19T11:57:24.487Z,14.91
2023-05-19T12:02:27.560Z,14.78
2023-05-19T12:07:29.860Z,14.66
2023-05-19T12:12:31.714Z,14.45
2023-05-19T12:17:34.414Z,14.25
2023-05-19T12:22:37.500Z,14.15
2023-05-19T12:27:42.246Z,14.09
2023-05-19T12:32:46.484Z,14.02
2023-05-19T12:37:48.877Z,14.06
2023-05-19T12:42:52.918Z,13.91
2023-05-19T12:47:55.616Z,13.96
2023-05-19T12:52:59.319Z,14.09
2023-05-19T12:58:06.694Z,14.12
2023-05-19T13:03:16.500Z,14.07
2023-05-19T13:08:21.294Z,13.86
2023-05-19T13:13:23.224Z,13.66
2023-05-19T13:18:27.060Z,13.69
2023-05-19T13:23:28.912Z,13.57
2023-05-19T13:28:31.102Z,13.64
2023-05-19T13:33:33.383Z,13.88
2023-05-19T13:38:35.369Z,13.92
2023-05-19T13:43:37.599Z,13.91
2023-05-19T13:48:39.669Z,13.76
2023-05-19T13:53:42.232Z,13.65
2023-05-19T13:58:44.304Z,13.59
2023-05-19T14:03:46.162Z,13.47
2023-05-19T14:08:48.064Z,13.31
2023-05-19T14:13:52.520Z,13.26
2023-05-19T14:18:54.811Z,13.37
2023-05-19T14:23:57.635Z,13.48
2023-05-19T14:29:00.139Z,13.67
2023-05-19T14:34:02.286Z,13.79
2023-05-19T14:39:04.180Z,13.91
2023-05-19T14:44:06.344Z,14.05
2023-05-19T14:49:08.524Z,14.06
2023-05-19T14:54:10.589Z,14.24
2023-05-19T14:59:12.468Z,14.23
2023-05-19T15:04:14.341Z,14.19
2023-05-19T15:09:16.689Z,14.05
2023-05-19T15:14:18.617Z,13.95
2023-05-19T15:19:21.099Z,13.80
2023-05-19T15:24:23.971Z,13.71
2023-05-19T15:29:26.088Z,13.69
2023-05-19T15:34:28.211Z,13.92
2023-05-19T15:39:31.095Z,14.17
2023-05-19T15:44:33.060Z,14.19
2023-05-19T15:49:35.241Z,14.09
2023-05-19T15:54:37.152Z,14.09
2023-05-19T15:59:39.209Z,14.01
2023-05-19T16:04:41.181Z,13.98
2023-05-19T16:09:43.168Z,13.92
2023-05-19T16:14:45.034Z,13.95
2023-05-19T16:19:46.855Z,13.90
2023-05-19T16:24:48.996Z,13.88
2023-05-19T16:29:50.887Z,13.88
2023-05-19T16:34:52.952Z,13.89
2023-05-19T16:39:54.949Z,13.85
2023-05-19T16:44:57.118Z,13.76
2023-05-19T16:49:59.013Z,13.68
2023-05-19T16:55:00.979Z,13.62
2023-05-19T17:00:03.775Z,13.58
2023-05-19T17:05:06.294Z,13.55
2023-05-19T17:10:09.383Z,13.48
2023-05-19T17:15:11.586Z,13.48
2023-05-19T17:20:13.540Z,13.50
2023-05-19T17:25:16.060Z,13.52
2023-05-19T17:30:18.003Z,13.49
2023-05-19T17:35:20.190Z,13.39
2023-05-19T17:40:22.083Z,13.34
2023-05-19T17:45:24.359Z,13.29
2023-05-19T17:50:26.240Z,13.26
2023-05-19T17:55:30.529Z,13.23
2023-05-19T18:00:33.013Z,13.29
2023-05-19T18:05:36.927Z,13.33
2023-05-19T18:10:42.265Z,13.29
2023-05-19T18:15:44.239Z,13.31
2023-05-19T18:20:46.209Z,13.28
2023-05-19T18:25:51.175Z,13.23
2023-05-19T18:31:05.370Z,13.14
2023-05-19T18:36:08.110Z,13.06
2023-05-19T18:41:10.104Z,12.94
2023-05-19T18:46:12.977Z,12.91
2023-05-19T18:51:15.485Z,12.91
2023-05-19T18:56:30.608Z,12.94
2023-05-19T19:01:32.487Z,12.93
2023-05-19T19:06:34.482Z,12.89
2023-05-19T19:11:36.621Z,12.84
2023-05-19T19:16:38.741Z,12.76
2023-05-19T19:21:41.506Z,12.68
2023-05-19T19:26:43.494Z,12.68
2023-05-19T19:31:45.742Z,12.71
2023-05-19T19:36:47.987Z,12.70
2023-05-19T19:41:50.137Z,12.65
2023-05-19T19:46:52.272Z,12.62
2023-05-19T19:51:54.349Z,12.58
2023-05-19T19:56:56.286Z,12.55
2023-05-19T20:01:58.277Z,12.51
2023-05-19T20:07:00.452Z,12.49
2023-05-19T20:12:02.429Z,12.51
2023-05-19T20:17:05.020Z,12.49
2023-05-19T20:22:06.909Z,12.49
2023-05-19T20:27:09.205Z,12.43
2023-05-19T20:32:11.268Z,12.38
2023-05-19T20:37:13.457Z,12.39
2023-05-19T20:42:15.464Z,12.42
2023-05-19T20:47:18.958Z,12.44
2023-05-19T20:52:21.136Z,12.40
2023-05-19T20:57:23.151Z,12.36
2023-05-19T21:02:25.000Z,12.30
2023-05-19T21:07:27.089Z,12.33
2023-05-19T21:12:33.456Z,12.33
2023-05-19T21:17:35.660Z,12.33
2023-05-19T21:22:37.893Z,12.32
2023-05-19T21:27:40.123Z,12.27
2023-05-19T21:32:42.364Z,12.26
2023-05-19T21:37:44.286Z,12.21
2023-05-19T21:42:46.262Z,12.16
2023-05-19T21:47:48.053Z,12.16
2023-05-19T21:52:50.010Z,12.19
2023-05-19T21:57:51.819Z,12.24
2023-05-19T22:02:53.804Z,12.25
2023-05-19T22:07:55.661Z,12.22
2023-05-19T22:12:58.352Z,12.17
2023-05-19T22:18:00.229Z,12.16
2023-05-19T22:23:03.229Z,12.16
2023-05-19T22:28:07.460Z,12.13
2023-05-19T22:33:11.010Z,12.16
2023-05-19T22:38:12.952Z,12.20
2023-05-19T22:43:14.759Z,12.18
2023-05-19T22:48:16.804Z,12.15
2023-05-19T22:53:18.686Z,12.10
2023-05-19T22:58:20.618Z,12.05
2023-05-19T23:03:22.537Z,12.10
2023-05-19T23:08:24.314Z,12.12
2023-05-19T23:13:26.236Z,12.15
2023-05-19T23:18:28.172Z,12.14
2023-05-19T23:23:29.871Z,12.09
2023-05-19T23:28:31.824Z,12.05
2023-05-19T23:33:33.596Z,12.02
2023-05-19T23:38:37.228Z,12.06
2023-05-19T23:43:39.109Z,12.06
2023-05-19T23:48:41.088Z,12.12
2023-05-19T23:53:42.854Z,12.15
2023-05-19T23:58:44.648Z,12.13
